Time;durP1;ratioP1;P1;durP2;ratioP2;P2;SDS_P1;SDS_P2;PMS_P1;PMS_P2;Temp;Humidity;BMP_temperature;BMP_pressure;BME280_temperature;BME280_humidity;BME280_pressure;Samples;Min_cycle;Max_cycle;Signal;HPM_P1;HPM_P2
2023/04/24 00:01:36;;;;;;;;;;;;;;;11.01;72.68;94989.34;5013518;28;1027;-54
2023/04/24 00:04:03;;;;;;;;;;;;;;;11.09;73.04;94983.97;5013425;28;1984;-54
2023/04/24 00:06:32;;;;;;;;;;;;;;;11.10;73.23;94989.16;5013507;28;979;-54
2023/04/24 00:09:00;;;;;;;;;;;;;;;11.12;73.23;94984.47;5013769;28;1042;-54
2023/04/24 00:11:26;;;;;;;;;;;;;;;11.06;73.45;94984.28;5008169;28;1534;-54
2023/04/24 00:13:53;;;;;;;;;;;;;;;10.92;73.56;94981.28;4997593;28;1030;-54
2023/04/24 00:16:19;;;;;;;;;;;;;;;10.79;73.83;94983.63;4997857;28;1029;-54
2023/04/24 00:18:45;;;;;;;;;;;;;;;10.89;74.27;94988.84;4997837;28;1042;-54
2023/04/24 00:21:11;;;;;;;;;;;;;;;11.02;73.54;94986.50;4997426;28;1041;-54
2023/04/24 00:23:37;;;;;;;;;;;;;;;11.08;73.61;94980.47;4997677;28;1062;-54
2023/04/24 00:26:03;;;;;;;;;;;;;;;10.86;75.08;94983.81;4997111;28;1906;-54
2023/04/24 00:28:29;;;;;;;;;;;;;;;10.86;75.09;94983.81;4997489;28;1049;-54
2023/04/24 00:30:55;;;;;;;;;;;;;;;11.03;74.87;94979.31;4997644;28;999;-54
2023/04/24 00:33:21;;;;;;;;;;;;;;;10.90;74.70;94969.09;4997277;28;1062;-54
2023/04/24 00:35:47;;;;;;;;;;;;;;;10.93;74.02;94969.59;4997245;28;1119;-54
2023/04/24 00:38:13;;;;;;;;;;;;;;;10.92;73.99;94972.44;4997454;28;1053;-54
2023/04/24 00:40:39;;;;;;;;;;;;;;;11.03;73.80;94974.78;4997172;28;1117;-55
2023/04/24 00:43:05;;;;;;;;;;;;;;;11.05;74.47;94971.94;4997159;28;1485;-53
2023/04/24 00:45:31;;;;;;;;;;;;;;;11.08;74.17;94972.44;4996938;28;2000;-54
2023/04/24 00:47:58;;;;;;;;;;;;;;;10.83;74.61;94963.59;4997311;28;1049;-54
2023/04/24 00:50:25;;;;;;;;;;;;;;;10.81;75.62;94972.78;4996854;28;1050;-54
2023/04/24 00:52:51;;;;;;;;;;;;;;;10.75;75.97;94966.25;4997278;28;1018;-54
2023/04/24 00:55:17;;;;;;;;;;;;;;;10.63;75.63;94976.44;4996983;28;987;-54
2023/04/24 00:57:43;;;;;;;;;;;;;;;10.70;76.39;94973.97;4997100;28;1022;-54
2023/04/24 01:00:10;;;;;;;;;;;;;;;10.89;75.16;94978.16;4996826;28;1101;-54
2023/04/24 01:02:39;;;;;;;;;;;;;;;11.01;74.30;94975.97;4997034;28;980;-54
2023/04/24 01:05:07;;;;;;;;;;;;;;;10.92;76.04;94975.09;4996615;28;2006;-54
2023/04/24 01:07:34;;;;;;;;;;;;;;;10.72;77.03;94964.75;4996588;28;1042;-54
2023/04/24 01:10:00;;;;;;;;;;;;;;;10.64;76.64;94972.78;4996828;28;1185;-54
2023/04/24 01:12:26;;;;;;;;;;;;;;;10.77;75.90;94964.25;5013795;28;1521;-54
2023/04/24 01:14:52;;;;;;;;;;;;;;;10.81;75.48;94965.56;5016261;28;989;-54
2023/04/24 01:17:18;;;;;;;;;;;;;;;10.80;76.27;94969.28;5016098;28;1044;-54
2023/04/24 01:19:44;;;;;;;;;;;;;;;10.86;75.89;94968.59;5016049;28;1026;-54
2023/04/24 01:22:11;;;;;;;;;;;;;;;10.83;76.59;94957.38;4997972;28;975;-54
2023/04/24 01:24:38;;;;;;;;;;;;;;;10.58;77.78;94957.38;5016139;28;2057;-54
2023/04/24 01:27:04;;;;;;;;;;;;;;;10.64;76.95;94953.22;5015696;28;1401;-54
2023/04/24 01:29:29;;;;;;;;;;;;;;;10.76;76.80;94957.25;5015912;28;978;-54
2023/04/24 01:31:58;;;;;;;;;;;;;;;10.83;76.96;94946.69;5015948;28;994;-54
2023/04/24 01:34:24;;;;;;;;;;;;;;;10.73;77.26;94950.38;5015690;28;1026;-54
2023/04/24 01:36:50;;;;;;;;;;;;;;;10.64;77.20;94946.03;5015728;28;2072;-54
2023/04/24 01:39:16;;;;;;;;;;;;;;;10.70;77.37;94947.22;5015870;28;1054;-54
2023/04/24 01:41:42;;;;;;;;;;;;;;;10.67;76.81;94940.34;5015528;28;1026;-54
2023/04/24 01:44:08;;;;;;;;;;;;;;;10.70;76.71;94937.34;5015629;28;1914;-54
2023/04/24 01:46:35;;;;;;;;;;;;;;;10.72;76.90;94943.38;5015510;28;1295;-54
2023/04/24 01:49:01;;;;;;;;;;;;;;;10.70;77.11;94941.88;5015499;28;966;-54
2023/04/24 01:51:28;;;;;;;;;;;;;;;10.59;77.15;94947.53;5015462;28;1057;-54
2023/04/24 01:53:54;;;;;;;;;;;;;;;10.59;77.43;94951.03;5015663;28;1044;-54
2023/04/24 01:56:21;;;;;;;;;;;;;;;10.47;77.75;94939.84;5015196;28;1086;-54
2023/04/24 01:58:48;;;;;;;;;;;;;;;10.14;78.87;94941.59;5015761;28;1053;-55
2023/04/24 02:01:17;;;;;;;;;;;;;;;10.12;78.83;94938.25;5015090;28;1878;-54
2023/04/24 02:03:43;;;;;;;;;;;;;;;10.13;78.97;94945.25;4997838;28;983;-54
2023/04/24 02:06:09;;;;;;;;;;;;;;;10.08;79.87;94940.41;5015134;28;1910;-54
2023/04/24 02:08:35;;;;;;;;;;;;;;;10.07;79.46;94940.56;5015380;28;1027;-54
2023/04/24 02:11:02;;;;;;;;;;;;;;;10.10;78.63;94934.91;5009255;28;1365;-54
2023/04/24 02:13:28;;;;;;;;;;;;;;;9.82;79.55;94932.47;4995295;28;1038;-55
2023/04/24 02:15:54;;;;;;;;;;;;;;;9.89;79.43;94930.84;4995727;28;971;-54
2023/04/24 02:18:20;;;;;;;;;;;;;;;10.01;79.17;94925.19;4995154;28;1120;-55
2023/04/24 02:20:46;;;;;;;;;;;;;;;10.02;79.47;94927.72;4995366;28;1014;-54
2023/04/24 02:23:13;;;;;;;;;;;;;;;10.06;78.99;94922.88;4995438;28;1051;-54
2023/04/24 02:25:39;;;;;;;;;;;;;;;10.09;78.93;94925.19;4995082;28;2009;-55
2023/04/24 02:28:05;;;;;;;;;;;;;;;9.98;79.48;94915.69;4995149;28;1098;-54
2023/04/24 02:30:31;;;;;;;;;;;;;;;9.85;79.31;94913.47;4995035;28;1872;-54
2023/04/24 02:32:57;;;;;;;;;;;;;;;9.72;79.99;94913.91;4994987;28;1026;-54
2023/04/24 02:35:23;;;;;;;;;;;;;;;9.83;79.72;94906.63;4995230;28;1327;-54
2023/04/24 02:37:49;;;;;;;;;;;;;;;9.82;79.35;94905.78;4995170;28;1047;-54
2023/04/24 02:40:15;;;;;;;;;;;;;;;9.67;79.77;94907.41;4994769;28;1039;-54
2023/04/24 02:42:41;;;;;;;;;;;;;;;9.54;80.17;94908.69;4995203;28;1063;-54
2023/04/24 02:45:07;;;;;;;;;;;;;;;9.47;80.74;94905.00;4994819;28;1981;-54
2023/04/24 02:47:33;;;;;;;;;;;;;;;9.63;80.07;94903.38;4994938;28;1035;-54
2023/04/24 02:49:59;;;;;;;;;;;;;;;9.64;80.19;94902.41;4994752;28;1078;-55
2023/04/24 02:52:25;;;;;;;;;;;;;;;9.50;80.95;94891.31;4994645;28;821;-54
2023/04/24 02:54:51;;;;;;;;;;;;;;;9.49;80.70;94895.00;4994787;28;970;-54
2023/04/24 02:57:17;;;;;;;;;;;;;;;9.58;80.80;94904.72;4994944;28;1078;-54
2023/04/24 02:59:43;;;;;;;;;;;;;;;9.61;80.50;94908.88;4994591;28;1042;-54
2023/04/24 03:02:09;;;;;;;;;;;;;;;9.66;79.77;94911.06;4994850;28;1018;-54
2023/04/24 03:04:36;;;;;;;;;;;;;;;9.72;80.09;94900.56;4994419;28;1985;-54
2023/04/24 03:07:02;;;;;;;;;;;;;;;9.68;79.43;94907.25;4994485;28;1038;-54
2023/04/24 03:09:28;;;;;;;;;;;;;;;9.50;79.63;94901.97;4994604;28;1054;-54
2023/04/24 03:11:54;;;;;;;;;;;;;;;9.44;80.09;94905.31;5007275;28;1553;-54
2023/04/24 03:14:20;;;;;;;;;;;;;;;9.52;79.53;94905.34;5014022;28;1035;-54
2023/04/24 03:16:46;;;;;;;;;;;;;;;9.60;79.77;94904.56;5013940;28;1110;-55
2023/04/24 03:19:12;;;;;;;;;;;;;;;9.35;80.24;94907.13;5014041;28;994;-54
2023/04/24 03:21:40;;;;;;;;;;;;;;;9.12;81.46;94897.97;5014089;28;1033;-55
2023/04/24 03:24:09;;;;;;;;;;;;;;;9.25;81.01;94903.72;5013740;28;1985;-54
2023/04/24 03:26:35;;;;;;;;;;;;;;;9.44;80.47;94904.47;5013758;28;1225;-54
2023/04/24 03:29:01;;;;;;;;;;;;;;;9.54;80.23;94908.69;5014076;28;1034;-53
2023/04/24 03:31:27;;;;;;;;;;;;;;;9.43;80.55;94905.44;5013892;28;1042;-54
2023/04/24 03:44:37;;;;;;;;;;;;;;;9.24;81.56;94914.53;5070657;28;1274;-51
2023/04/24 03:47:04;;;;;;;;;;;;;;;9.34;80.80;94908.09;5070603;28;1020;-50
2023/04/24 03:49:29;;;;;;;;;;;;;;;9.51;80.40;94914.34;5070384;28;1589;-50
2023/04/24 03:51:56;;;;;;;;;;;;;;;9.63;80.01;94922.91;5070266;28;1910;-51
2023/04/24 03:54:22;;;;;;;;;;;;;;;9.51;80.89;94922.34;5069489;28;1028;-51
2023/04/24 03:56:48;;;;;;;;;;;;;;;9.41;81.03;94918.97;5070680;28;965;-50
2023/04/24 03:59:14;;;;;;;;;;;;;;;9.37;81.13;94921.13;5070186;28;1046;-51
2023/04/24 04:01:40;;;;;;;;;;;;;;;9.30;81.46;94916.59;5070308;28;1008;-51
2023/04/24 04:04:07;;;;;;;;;;;;;;;9.37;81.25;94920.28;5070439;28;1040;-50
2023/04/24 04:06:34;;;;;;;;;;;;;;;9.41;81.76;94918.13;5069935;28;1229;-51
2023/04/24 04:09:00;;;;;;;;;;;;;;;9.62;80.40;94920.38;5070375;28;1282;-50
2023/04/24 04:11:26;;;;;;;;;;;;;;;9.76;80.33;94920.59;5068920;28;1004;-51
2023/04/24 04:13:52;;;;;;;;;;;;;;;9.83;80.43;94926.16;5068896;28;1914;-50
2023/04/24 04:16:18;;;;;;;;;;;;;;;9.75;80.69;94929.63;5068927;28;1012;-50
2023/04/24 04:18:45;;;;;;;;;;;;;;;9.55;81.81;94925.53;5069944;28;1013;-50
2023/04/24 04:21:11;;;;;;;;;;;;;;;9.52;82.08;94925.84;5069738;28;1108;-50
2023/04/24 04:23:37;;;;;;;;;;;;;;;9.66;81.35;94930.59;5068570;28;1956;-50
2023/04/24 04:26:03;;;;;;;;;;;;;;;10.01;80.16;94920.69;5069784;28;1119;-50
2023/04/24 04:28:31;;;;;;;;;;;;;;;10.22;79.42;94920.22;5069706;28;977;-50
2023/04/24 04:30:57;;;;;;;;;;;;;;;10.39;79.13;94920.28;5069655;28;1099;-51
2023/04/24 04:33:26;;;;;;;;;;;;;;;10.50;79.64;94917.28;5069389;28;1914;-51
2023/04/24 04:35:52;;;;;;;;;;;;;;;10.48;79.61;94921.97;5069637;28;1012;-51
2023/04/24 04:38:19;;;;;;;;;;;;;;;10.45;79.76;94917.78;5069703;28;1055;-51
2023/04/24 04:40:45;;;;;;;;;;;;;;;10.62;79.81;94918.63;5069328;28;1564;-50
2023/04/24 04:43:15;;;;;;;;;;;;;;;10.90;78.47;94926.31;5069066;28;1109;-50
2023/04/24 04:45:43;;;;;;;;;;;;;;;11.09;77.71;94931.28;5056084;28;1068;-50
2023/04/24 04:48:09;;;;;;;;;;;;;;;11.51;75.44;94915.97;5056324;28;1031;-50
2023/04/24 04:50:35;;;;;;;;;;;;;;;11.63;74.91;94921.78;5056137;28;1043;-50
2023/04/24 04:53:01;;;;;;;;;;;;;;;11.67;75.59;94923.94;5056089;28;1914;-50
2023/04/24 04:55:27;;;;;;;;;;;;;;;11.85;74.65;94925.53;5056057;28;1330;-50
2023/04/24 04:57:55;;;;;;;;;;;;;;;12.01;74.16;94924.66;5055935;28;1025;-50
2023/04/24 05:00:21;;;;;;;;;;;;;;;12.16;73.59;94922.06;5055734;28;1096;-50
2023/04/24 05:02:47;;;;;;;;;;;;;;;12.52;71.77;94929.53;5056057;28;1028;-49
2023/04/24 05:05:14;;;;;;;;;;;;;;;12.33;72.71;94922.81;5055797;28;953;-49
2023/04/24 05:07:40;;;;;;;;;;;;;;;12.43;72.52;94924.25;5055751;28;1105;-49
2023/04/24 05:10:06;;;;;;;;;;;;;;;12.56;73.02;94922.81;5055680;28;1100;-49
2023/04/24 05:12:32;;;;;;;;;;;;;;;12.50;72.89;94927.91;5055464;28;1913;-49
2023/04/24 05:14:58;;;;;;;;;;;;;;;12.51;72.24;94931.41;5054390;28;1859;-49
2023/04/24 05:17:25;;;;;;;;;;;;;;;12.68;72.64;94927.56;5055763;28;969;-49
2023/04/24 05:19:51;;;;;;;;;;;;;;;12.86;70.77;94929.09;5054918;28;1096;-50
2023/04/24 05:22:20;;;;;;;;;;;;;;;13.31;70.22;94930.06;5054191;28;997;-50
2023/04/24 05:24:47;;;;;;;;;;;;;;;13.61;67.70;94927.41;5054372;28;1194;-50
2023/04/24 05:27:13;;;;;;;;;;;;;;;13.57;65.51;94934.19;5055260;28;1044;-49
2023/04/24 05:29:39;;;;;;;;;;;;;;;13.83;65.82;94936.41;5054600;28;1021;-50
2023/04/24 05:32:05;;;;;;;;;;;;;;;14.12;65.45;94932.84;5055104;28;1910;-50
2023/04/24 05:34:32;;;;;;;;;;;;;;;14.34;65.81;94938.25;5055235;28;976;-50
2023/04/24 05:36:57;;;;;;;;;;;;;;;14.41;63.70;94940.00;5055046;28;1064;-50
2023/04/24 05:39:24;;;;;;;;;;;;;;;14.47;63.23;94948.34;5055328;28;1048;-50
2023/04/24 05:41:51;;;;;;;;;;;;;;;14.57;65.29;94938.13;5055028;28;1281;-50
2023/04/24 05:44:17;;;;;;;;;;;;;;;14.34;64.88;94941.78;5054719;28;1097;-50
2023/04/24 05:46:43;;;;;;;;;;;;;;;14.44;63.64;94947.69;5054907;28;1045;-49
2023/04/24 05:49:09;;;;;;;;;;;;;;;14.59;63.65;94941.47;5055158;28;1056;-50
2023/04/24 05:51:35;;;;;;;;;;;;;;;14.66;64.32;94936.16;5054619;28;1209;-50
2023/04/24 05:54:02;;;;;;;;;;;;;;;14.78;62.73;94937.31;5054724;28;1910;-50
2023/04/24 05:56:29;;;;;;;;;;;;;;;15.03;63.75;94929.66;5053730;28;1024;-50
2023/04/24 05:58:55;;;;;;;;;;;;;;;15.01;62.34;94935.25;5054614;28;944;-50
2023/04/24 06:01:21;;;;;;;;;;;;;;;15.19;62.36;94929.38;5054788;28;968;-50
2023/04/24 06:03:48;;;;;;;;;;;;;;;15.57;62.12;94925.50;5054534;28;1037;-50
2023/04/24 06:06:14;;;;;;;;;;;;;;;15.54;60.53;94925.91;5054533;28;992;-50
2023/04/24 06:08:42;;;;;;;;;;;;;;;15.63;59.90;94922.00;5054620;28;1044;-51
2023/04/24 06:11:08;;;;;;;;;;;;;;;15.78;59.88;94933.56;5054467;28;1045;-51
2023/04/24 06:13:34;;;;;;;;;;;;;;;15.84;59.35;94933.78;5053204;28;1989;-51
2023/04/24 06:16:00;;;;;;;;;;;;;;;16.28;59.26;94925.28;5053268;28;1095;-51
2023/04/24 06:18:26;;;;;;;;;;;;;;;16.69;56.87;94937.84;5054568;28;957;-50
2023/04/24 06:20:52;;;;;;;;;;;;;;;16.71;56.34;94924.16;5054280;28;1045;-52
2023/04/24 06:23:18;;;;;;;;;;;;;;;16.72;57.82;94920.41;5054275;28;1037;-51
2023/04/24 06:25:44;;;;;;;;;;;;;;;17.16;57.71;94913.63;5054501;28;965;-50
2023/04/24 06:28:10;;;;;;;;;;;;;;;17.20;54.82;94917.56;5053795;28;1017;-50
2023/04/24 06:30:36;;;;;;;;;;;;;;;17.26;55.88;94913.22;5054392;28;992;-50
2023/04/24 06:33:02;;;;;;;;;;;;;;;17.46;55.60;94911.34;5054024;28;1910;-50
2023/04/24 06:35:28;;;;;;;;;;;;;;;17.60;54.51;94909.44;5053990;28;1005;-51
2023/04/24 06:37:56;;;;;;;;;;;;;;;17.73;53.91;94911.28;5054193;28;1732;-51
2023/04/24 06:40:22;;;;;;;;;;;;;;;17.86;54.61;94910.47;5053869;28;1100;-51
2023/04/24 06:42:48;;;;;;;;;;;;;;;18.35;53.42;94914.44;5053644;28;1628;-51
2023/04/24 06:45:14;;;;;;;;;;;;;;;18.51;52.04;94908.53;5054000;28;1037;-51
2023/04/24 06:47:40;;;;;;;;;;;;;;;18.62;52.27;94906.19;5054084;28;1013;-51
2023/04/24 06:50:06;;;;;;;;;;;;;;;18.82;52.03;94915.06;5053665;28;1253;-51
2023/04/24 06:52:32;;;;;;;;;;;;;;;18.86;51.81;94905.44;5053856;28;1910;-51
2023/04/24 06:55:02;;;;;;;;;;;;;;;19.02;50.50;94906.78;5053756;28;1017;-51
2023/04/24 06:57:28;;;;;;;;;;;;;;;18.85;51.76;94901.06;5053613;28;1038;-51
2023/04/24 06:59:55;;;;;;;;;;;;;;;19.04;50.28;94903.88;5053849;28;1008;-51
2023/04/24 07:02:21;;;;;;;;;;;;;;;19.43;51.49;94902.72;5053764;28;1044;-51
2023/04/24 07:04:47;;;;;;;;;;;;;;;19.80;49.92;94905.50;5053397;28;1097;-51
2023/04/24 07:07:16;;;;;;;;;;;;;;;20.02;47.99;94911.34;5053281;28;938;-51
2023/04/24 07:09:43;;;;;;;;;;;;;;;20.38;48.97;94900.69;5053729;28;973;-51
2023/04/24 07:12:10;;;;;;;;;;;;;;;20.40;47.79;94901.28;5053308;28;1910;-51
2023/04/24 07:14:39;;;;;;;;;;;;;;;20.29;47.90;94898.28;5053310;28;1052;-51
2023/04/24 07:17:06;;;;;;;;;;;;;;;20.45;48.27;94904.13;5053596;28;1013;-51
2023/04/24 07:19:37;;;;;;;;;;;;;;;20.42;47.46;94897.28;5053372;28;1039;-51
2023/04/24 07:22:03;;;;;;;;;;;;;;;20.69;46.38;94891.53;5053432;28;1024;-51
2023/04/24 07:24:32;;;;;;;;;;;;;;;20.44;45.76;94895.16;5053294;28;1030;-51
2023/04/24 07:26:58;;;;;;;;;;;;;;;20.64;46.55;94894.09;5053275;28;965;-51
2023/04/24 07:29:24;;;;;;;;;;;;;;;20.80;44.21;94893.44;5053503;28;1040;-51
2023/04/24 07:31:50;;;;;;;;;;;;;;;21.38;44.65;94899.25;5053384;28;1107;-51
2023/04/24 07:34:16;;;;;;;;;;;;;;;21.52;44.69;94884.41;5053114;28;1909;-51
2023/04/24 07:36:42;;;;;;;;;;;;;;;21.20;43.68;94881.16;5053202;28;1045;-51
2023/04/24 07:39:09;;;;;;;;;;;;;;;21.35;45.56;94875.25;5053160;28;1030;-51
2023/04/24 07:41:35;;;;;;;;;;;;;;;21.27;44.46;94881.88;5052967;28;1541;-51
2023/04/24 07:44:00;;;;;;;;;;;;;;;21.05;45.75;94871.53;5053075;28;1325;-51
2023/04/24 07:46:29;;;;;;;;;;;;;;;21.31;43.85;94871.34;5053350;28;1220;-51
2023/04/24 07:48:55;;;;;;;;;;;;;;;21.93;43.53;94870.88;5053262;28;1036;-51
2023/04/24 07:51:21;;;;;;;;;;;;;;;21.72;43.28;94862.28;5053137;28;977;-52
2023/04/24 07:53:47;;;;;;;;;;;;;;;21.49;42.28;94857.66;5053134;28;1910;-51
2023/04/24 07:56:13;;;;;;;;;;;;;;;21.61;44.48;94858.50;5052908;28;1065;-51
2023/04/24 07:58:39;;;;;;;;;;;;;;;22.30;42.34;94866.00;5053211;28;1001;-51
2023/04/24 08:01:06;;;;;;;;;;;;;;;22.23;43.68;94855.22;5052952;28;1154;-51
2023/04/24 08:03:32;;;;;;;;;;;;;;;21.87;43.78;94837.28;5052716;28;1861;-51
2023/04/24 08:05:58;;;;;;;;;;;;;;;21.86;42.33;94851.16;5052838;28;993;-51
2023/04/24 08:08:24;;;;;;;;;;;;;;;22.06;42.61;94845.31;5051973;28;1100;-51
2023/04/24 08:10:50;;;;;;;;;;;;;;;22.48;43.19;94850.53;5053043;28;1000;-51
2023/04/24 08:13:16;;;;;;;;;;;;;;;22.57;42.40;94851.81;5052890;28;1991;-51
2023/04/24 08:15:42;;;;;;;;;;;;;;;22.74;43.11;94849.94;5053096;28;1055;-51
2023/04/24 08:18:11;;;;;;;;;;;;;;;22.46;40.59;94853.53;5052645;28;1948;-51
2023/04/24 08:20:37;;;;;;;;;;;;;;;22.77;43.78;94835.84;5055798;28;1009;-51
2023/04/24 08:23:03;;;;;;;;;;;;;;;23.19;41.85;94830.03;5056547;28;1061;-51
2023/04/24 08:25:30;;;;;;;;;;;;;;;23.27;41.30;94827.97;5056271;28;1970;-51
2023/04/24 08:27:56;;;;;;;;;;;;;;;23.79;40.23;94822.25;5056604;28;1062;-51
2023/04/24 08:30:22;;;;;;;;;;;;;;;24.20;41.27;94817.28;5056260;28;1969;-51
2023/04/24 08:32:48;;;;;;;;;;;;;;;23.82;40.32;94818.16;5056131;28;1983;-51
2023/04/24 08:35:14;;;;;;;;;;;;;;;23.54;37.08;94823.50;5056527;28;1005;-51
2023/04/24 08:37:40;;;;;;;;;;;;;;;23.64;39.60;94816.50;5056484;28;1012;-51
2023/04/24 08:40:16;;;;;;;;;;;;;;;23.71;36.90;94817.16;5056096;28;1069;-52
2023/04/24 08:42:43;;;;;;;;;;;;;;;23.83;37.46;94809.75;5056145;28;1307;-51
2023/04/24 08:45:10;;;;;;;;;;;;;;;23.72;37.35;94806.00;5056555;28;1032;-51
2023/04/24 08:47:37;;;;;;;;;;;;;;;23.10;38.93;94811.63;5055923;28;1005;-51
2023/04/24 08:50:05;;;;;;;;;;;;;;;22.42;40.05;94811.47;5056080;28;1024;-51
2023/04/24 08:52:32;;;;;;;;;;;;;;;22.78;38.99;94798.50;5055738;28;1910;-52
2023/04/24 08:54:59;;;;;;;;;;;;;;;23.29;39.54;94793.91;5055871;28;1114;-52
2023/04/24 08:57:26;;;;;;;;;;;;;;;23.88;36.82;94796.13;5055760;28;1038;-51
2023/04/24 08:59:52;;;;;;;;;;;;;;;23.71;36.91;94808.97;5056068;28;985;-51
2023/04/24 09:02:18;;;;;;;;;;;;;;;22.93;38.28;94790.56;5055922;28;1117;-51
2023/04/24 09:04:45;;;;;;;;;;;;;;;22.33;39.21;94794.72;5055674;28;1042;-51
2023/04/24 09:07:12;;;;;;;;;;;;;;;22.28;38.79;94786.44;5055497;28;1045;-51
2023/04/24 09:09:38;;;;;;;;;;;;;;;22.39;38.53;94790.19;5055887;28;1044;-51
2023/04/24 09:12:04;;;;;;;;;;;;;;;23.44;37.70;94773.41;5055823;28;1906;-51
2023/04/24 09:14:31;;;;;;;;;;;;;;;23.57;36.64;94773.03;5055764;28;1040;-51
2023/04/24 09:16:57;;;;;;;;;;;;;;;23.76;38.59;94777.13;5055390;28;1108;-52
2023/04/24 09:19:23;;;;;;;;;;;;;;;24.01;35.69;94775.00;5055686;28;1032;-52
2023/04/24 09:21:52;;;;;;;;;;;;;;;24.61;36.70;94765.88;5055391;28;1049;-52
2023/04/24 09:24:22;;;;;;;;;;;;;;;24.87;36.84;94766.09;5055503;28;1040;-52
2023/04/24 09:26:48;;;;;;;;;;;;;;;24.27;35.38;94766.03;5055608;28;968;-52
2023/04/24 09:29:17;;;;;;;;;;;;;;;23.93;36.08;94762.63;5055509;28;981;-52
2023/04/24 09:31:44;;;;;;;;;;;;;;;23.73;35.97;94764.00;5055449;28;989;-51
2023/04/24 09:34:10;;;;;;;;;;;;;;;23.25;36.29;94734.66;5055150;28;1989;-52
2023/04/24 09:36:41;;;;;;;;;;;;;;;23.38;35.84;94764.31;5055107;28;1883;-52
2023/04/24 09:39:10;;;;;;;;;;;;;;;24.11;33.98;94770.50;5055422;28;1040;-52
2023/04/24 09:41:43;;;;;;;;;;;;;;;24.66;35.22;94765.06;5055161;28;1313;-51
2023/04/24 09:44:14;;;;;;;;;;;;;;;24.77;35.79;94766.00;5055100;28;1698;-52
2023/04/24 09:46:41;;;;;;;;;;;;;;;25.02;34.38;94770.88;5054963;28;977;-52
2023/04/24 09:49:08;;;;;;;;;;;;;;;25.02;33.38;94768.13;5054749;28;1020;-52
2023/04/24 09:51:36;;;;;;;;;;;;;;;24.63;33.96;94765.63;5054947;28;1197;-52
2023/04/24 09:54:03;;;;;;;;;;;;;;;23.89;34.45;94770.50;5054783;28;1914;-51
2023/04/24 09:56:32;;;;;;;;;;;;;;;23.54;36.02;94757.16;5054903;28;1016;-51
2023/04/24 09:59:07;;;;;;;;;;;;;;;23.40;36.61;94762.16;5054814;28;984;-51
2023/04/24 10:01:34;;;;;;;;;;;;;;;22.81;35.60;94759.88;5054393;28;1096;-51
2023/04/24 10:04:00;;;;;;;;;;;;;;;22.92;36.86;94755.41;5054824;28;1035;-51
2023/04/24 10:06:35;;;;;;;;;;;;;;;23.07;36.13;94747.50;5054669;28;1043;-51
2023/04/24 10:09:02;;;;;;;;;;;;;;;24.06;34.93;94742.31;5053613;28;1009;-49
2023/04/24 10:11:28;;;;;;;;;;;;;;;24.40;32.66;94751.16;5054554;28;979;-49
2023/04/24 10:13:55;;;;;;;;;;;;;;;24.25;34.05;94749.06;5054648;28;1914;-50
2023/04/24 10:16:22;;;;;;;;;;;;;;;24.27;34.46;94738.72;5054324;28;1044;-49
2023/04/24 10:18:48;;;;;;;;;;;;;;;24.02;35.39;94735.69;5054642;28;961;-49
2023/04/24 10:21:14;;;;;;;;;;;;;;;23.45;33.60;94732.25;5054499;28;969;-48
2023/04/24 10:23:41;;;;;;;;;;;;;;;23.41;34.54;94731.09;5054601;28;1060;-49
2023/04/24 10:26:16;;;;;;;;;;;;;;;24.00;35.09;94735.13;5054520;28;969;-48
2023/04/24 10:28:46;;;;;;;;;;;;;;;24.70;33.21;94730.66;5054219;28;1874;-49
2023/04/24 10:31:14;;;;;;;;;;;;;;;24.44;33.58;94733.16;5054242;28;1043;-49
2023/04/24 10:33:43;;;;;;;;;;;;;;;23.93;33.56;94735.31;5054274;28;1919;-51
2023/04/24 10:36:10;;;;;;;;;;;;;;;23.68;33.42;94735.81;5054348;28;1031;-51
2023/04/24 10:38:38;;;;;;;;;;;;;;;23.68;33.30;94736.63;5052954;28;977;-49
2023/04/24 10:41:15;;;;;;;;;;;;;;;23.59;33.72;94725.31;5053997;28;1567;-49
2023/04/24 10:43:42;;;;;;;;;;;;;;;23.38;33.95;94726.13;5053477;28;1372;-50
2023/04/24 10:46:10;;;;;;;;;;;;;;;22.83;32.87;94725.00;5054083;28;960;-50
2023/04/24 10:48:41;;;;;;;;;;;;;;;22.33;32.92;94733.94;5054020;28;1044;-49
2023/04/24 10:51:10;;;;;;;;;;;;;;;22.11;34.50;94717.47;5053945;28;1005;-49
2023/04/24 10:53:37;;;;;;;;;;;;;;;21.96;34.63;94715.28;5053841;28;1997;-49
2023/04/24 10:56:04;;;;;;;;;;;;;;;21.72;35.62;94712.66;5054062;28;949;-49
2023/04/24 10:58:40;;;;;;;;;;;;;;;21.83;36.67;94716.38;5053913;28;1035;-49
2023/04/24 11:01:06;;;;;;;;;;;;;;;21.55;36.03;94706.28;5053789;28;1055;-48
2023/04/24 11:03:33;;;;;;;;;;;;;;;21.16;37.21;94706.81;5053710;28;1033;-48
2023/04/24 11:06:01;;;;;;;;;;;;;;;20.93;38.08;94695.97;5052765;28;957;-49
2023/04/24 11:08:28;;;;;;;;;;;;;;;20.85;39.01;94689.81;5053431;28;1029;-48
2023/04/24 11:10:57;;;;;;;;;;;;;;;21.14;37.62;94684.47;5053890;28;985;-48
2023/04/24 11:13:23;;;;;;;;;;;;;;;21.46;38.22;94684.09;5053652;28;1910;-49
2023/04/24 11:16:08;;;;;;;;;;;;;;;21.52;37.01;94690.47;5053662;28;1110;-48
2023/04/24 11:18:39;;;;;;;;;;;;;;;21.43;35.69;94684.53;5053408;28;1092;-49
2023/04/24 11:21:17;;;;;;;;;;;;;;;21.43;35.01;94679.91;5053338;28;1043;-49
2023/04/24 11:23:44;;;;;;;;;;;;;;;21.46;34.80;94684.09;5053648;28;956;-48
2023/04/24 11:26:24;;;;;;;;;;;;;;;21.57;34.76;94682.41;5053587;28;961;-48
2023/04/24 11:28:50;;;;;;;;;;;;;;;21.71;34.23;94680.25;5053381;28;1084;-48
2023/04/24 11:31:35;;;;;;;;;;;;;;;21.53;34.64;94676.63;5053219;28;1075;-49
2023/04/24 11:34:13;;;;;;;;;;;;;;;21.44;34.70;94680.81;5053473;28;1910;-48
2023/04/24 11:36:43;;;;;;;;;;;;;;;21.40;35.25;94666.81;5053224;28;1116;-49
2023/04/24 11:39:10;;;;;;;;;;;;;;;21.60;34.99;94668.31;5053241;28;1033;-49
2023/04/24 11:41:36;;;;;;;;;;;;;;;21.83;34.79;94659.25;5053165;28;1568;-49
2023/04/24 11:44:05;;;;;;;;;;;;;;;21.93;34.77;94661.31;5053006;28;1310;-48
2023/04/24 11:46:31;;;;;;;;;;;;;;;21.93;34.48;94656.72;5053051;28;1120;-49
2023/04/24 11:48:58;;;;;;;;;;;;;;;22.19;33.01;94651.72;5053394;28;1047;-49
2023/04/24 11:51:25;;;;;;;;;;;;;;;22.33;33.91;94653.09;5052956;28;1049;-49
2023/04/24 11:53:51;;;;;;;;;;;;;;;22.39;34.07;94643.13;5053443;28;1985;-49
2023/04/24 11:56:19;;;;;;;;;;;;;;;21.97;35.16;94647.00;5057352;28;969;-48
2023/04/24 11:58:46;;;;;;;;;;;;;;;21.81;35.68;94635.00;5057357;28;1039;-48
2023/04/24 12:01:12;;;;;;;;;;;;;;;21.63;35.46;94635.22;5056815;28;1087;-48
2023/04/24 12:03:39;;;;;;;;;;;;;;;21.59;35.21;94628.63;5057350;28;961;-48
2023/04/24 12:06:08;;;;;;;;;;;;;;;21.60;35.24;94630.25;5056948;28;1871;-49
2023/04/24 12:08:35;;;;;;;;;;;;;;;21.59;35.26;94628.63;5057146;28;1032;-48
2023/04/24 12:11:02;;;;;;;;;;;;;;;21.75;35.33;94610.66;5056835;28;1054;-48
2023/04/24 12:13:28;;;;;;;;;;;;;;;22.02;35.03;94614.44;5056892;28;1995;-48
2023/04/24 12:15:54;;;;;;;;;;;;;;;22.09;33.56;94613.44;5056857;28;997;-48
2023/04/24 12:18:23;;;;;;;;;;;;;;;22.08;33.76;94607.16;5056667;28;1112;-48
2023/04/24 12:20:49;;;;;;;;;;;;;;;21.94;33.68;94603.13;5056942;28;961;-50
2023/04/24 12:23:17;;;;;;;;;;;;;;;21.84;33.25;94604.59;5056848;28;1055;-48
2023/04/24 12:25:43;;;;;;;;;;;;;;;21.78;32.75;94602.03;5056545;28;1067;-48
2023/04/24 12:28:10;;;;;;;;;;;;;;;21.74;33.11;94596.25;5056567;28;942;-49
2023/04/24 12:30:41;;;;;;;;;;;;;;;21.92;33.16;94594.38;5056709;28;1037;-49
2023/04/24 12:33:07;;;;;;;;;;;;;;;21.83;33.82;94599.38;5056542;28;1983;-50
2023/04/24 12:35:35;;;;;;;;;;;;;;;21.83;33.77;94592.06;5055291;28;1032;-48
2023/04/24 12:38:08;;;;;;;;;;;;;;;22.07;34.22;94582.94;5056598;28;1016;-48
2023/04/24 12:40:34;;;;;;;;;;;;;;;22.22;33.71;94577.72;5056453;28;1578;-48
2023/04/24 12:43:00;;;;;;;;;;;;;;;22.29;33.69;94575.72;5056108;28;1111;-48
2023/04/24 12:45:27;;;;;;;;;;;;;;;22.41;34.06;94568.25;5056246;28;1024;-48
2023/04/24 12:47:53;;;;;;;;;;;;;;;22.57;34.89;94557.59;5056472;28;1020;-48
2023/04/24 12:50:19;;;;;;;;;;;;;;;22.60;35.08;94548.91;5056137;28;1133;-49
2023/04/24 12:52:46;;;;;;;;;;;;;;;22.60;35.60;94548.91;5056068;28;1992;-49
2023/04/24 12:55:13;;;;;;;;;;;;;;;22.51;35.74;94550.41;5055947;28;973;-49
2023/04/24 12:57:39;;;;;;;;;;;;;;;22.54;33.99;94544.47;5056236;28;1027;-48
2023/04/24 13:00:06;;;;;;;;;;;;;;;22.62;34.72;94544.03;5055835;28;1045;-49
2023/04/24 13:02:33;;;;;;;;;;;;;;;22.61;33.73;94547.81;5055982;28;1024;-49
2023/04/24 13:04:59;;;;;;;;;;;;;;;22.50;35.12;94540.59;5055754;28;989;-49
2023/04/24 13:07:26;;;;;;;;;;;;;;;22.49;34.95;94539.78;5055815;28;1953;-49
2023/04/24 13:09:55;;;;;;;;;;;;;;;22.38;34.30;94538.78;5056113;28;977;-49